MI86 weather

Midget Airport
North Muskegon, Michigan, United States

Public forecast

Using degrees Fahrenheit for public forecast. Weather courtesy of forecast.io.

Closest aviation weather report (METAR) to Midget Airport

Closest report is Fremont Municipal Airport, 10.2 nm (18.9 km) NE. Retrieved 2020/08/04 01:35 UTC (10 minutes ago):

KFFX 040135Z AUTO 02008KT 10SM BKN028 OVC039 16/13 A3005 RMK AO2 T01620129

Closest aviation forecast (TAF) to Midget Airport

Closest forecast is Muskegon County Airport, 10.6 nm (19.7 km) SSW. Retrieved 2020-08-04 00:30 UTC (1 hour ago):

TAF KMKG 032328Z 0400/0424 36011KT P6SM SCT025 OVC040 FM040100 02009KT P6SM OVC050 FM040900 02005KT P6SM OVC025 FM041300 36007KT P6SM BKN050 FM041900 33010KT P6SM FEW250